sensor_id;sensor_type;location;lat;lon;timestamp;P1;durP1;ratioP1;P2;durP2;ratioP2
13641;SDS011;6894;52.196;9.904;2022-09-29T00:00:11;1.43;;;1.23;;
13641;SDS011;6894;52.196;9.904;2022-09-29T00:02:39;2.47;;;1.80;;
13641;SDS011;6894;52.196;9.904;2022-09-29T00:05:06;2.07;;;1.30;;
13641;SDS011;6894;52.196;9.904;2022-09-29T00:07:35;1.83;;;1.70;;
13641;SDS011;6894;52.196;9.904;2022-09-29T00:10:01;2.03;;;1.50;;
13641;SDS011;6894;52.196;9.904;2022-09-29T00:12:29;3.93;;;1.70;;
13641;SDS011;6894;52.196;9.904;2022-09-29T00:14:56;1.93;;;1.40;;
13641;SDS011;6894;52.196;9.904;2022-09-29T00:17:23;2.43;;;1.63;;
13641;SDS011;6894;52.196;9.904;2022-09-29T00:19:49;2.70;;;1.77;;
13641;SDS011;6894;52.196;9.904;2022-09-29T00:22:16;2.37;;;1.67;;
13641;SDS011;6894;52.196;9.904;2022-09-29T00:24:45;3.20;;;1.70;;
13641;SDS011;6894;52.196;9.904;2022-09-29T00:27:12;2.13;;;1.80;;
13641;SDS011;6894;52.196;9.904;2022-09-29T00:29:39;3.63;;;2.10;;
13641;SDS011;6894;52.196;9.904;2022-09-29T00:32:06;2.63;;;2.07;;
13641;SDS011;6894;52.196;9.904;2022-09-29T00:34:33;3.03;;;1.83;;
13641;SDS011;6894;52.196;9.904;2022-09-29T00:36:59;3.93;;;2.07;;
13641;SDS011;6894;52.196;9.904;2022-09-29T00:39:26;3.40;;;2.20;;
13641;SDS011;6894;52.196;9.904;2022-09-29T00:41:54;3.50;;;2.37;;
13641;SDS011;6894;52.196;9.904;2022-09-29T00:47:32;6.27;;;2.83;;
13641;SDS011;6894;52.196;9.904;2022-09-29T00:50:03;2.47;;;2.10;;
13641;SDS011;6894;52.196;9.904;2022-09-29T00:52:38;5.50;;;2.60;;
13641;SDS011;6894;52.196;9.904;2022-09-29T00:55:11;3.83;;;2.63;;
13641;SDS011;6894;52.196;9.904;2022-09-29T00:57:45;2.90;;;2.67;;
13641;SDS011;6894;52.196;9.904;2022-09-29T01:00:16;5.37;;;3.63;;
13641;SDS011;6894;52.196;9.904;2022-09-29T01:02:44;4.10;;;2.50;;
13641;SDS011;6894;52.196;9.904;2022-09-29T01:05:15;3.27;;;2.50;;
13641;SDS011;6894;52.196;9.904;2022-09-29T01:07:45;4.43;;;3.03;;
13641;SDS011;6894;52.196;9.904;2022-09-29T01:10:12;3.97;;;2.63;;
13641;SDS011;6894;52.196;9.904;2022-09-29T01:12:41;3.83;;;2.87;;
13641;SDS011;6894;52.196;9.904;2022-09-29T01:15:11;2.77;;;2.53;;
13641;SDS011;6894;52.196;9.904;2022-09-29T01:17:39;4.93;;;2.63;;
13641;SDS011;6894;52.196;9.904;2022-09-29T01:20:08;3.60;;;2.80;;
13641;SDS011;6894;52.196;9.904;2022-09-29T01:25:40;4.37;;;2.90;;
13641;SDS011;6894;52.196;9.904;2022-09-29T01:28:26;5.53;;;3.23;;
13641;SDS011;6894;52.196;9.904;2022-09-29T01:31:15;4.23;;;3.20;;
13641;SDS011;6894;52.196;9.904;2022-09-29T01:33:49;4.10;;;3.60;;
13641;SDS011;6894;52.196;9.904;2022-09-29T01:36:27;4.97;;;3.73;;
13641;SDS011;6894;52.196;9.904;2022-09-29T01:39:05;4.57;;;4.00;;
13641;SDS011;6894;52.196;9.904;2022-09-29T01:41:39;4.47;;;3.60;;
13641;SDS011;6894;52.196;9.904;2022-09-29T01:44:13;8.77;;;4.40;;
13641;SDS011;6894;52.196;9.904;2022-09-29T01:46:47;8.97;;;5.53;;
13641;SDS011;6894;52.196;9.904;2022-09-29T01:49:17;4.47;;;4.07;;
13641;SDS011;6894;52.196;9.904;2022-09-29T01:51:48;4.47;;;4.00;;
13641;SDS011;6894;52.196;9.904;2022-09-29T01:54:20;6.77;;;4.73;;
13641;SDS011;6894;52.196;9.904;2022-09-29T01:56:50;6.50;;;4.70;;
13641;SDS011;6894;52.196;9.904;2022-09-29T01:59:22;7.30;;;4.97;;
13641;SDS011;6894;52.196;9.904;2022-09-29T02:01:56;5.20;;;4.27;;
13641;SDS011;6894;52.196;9.904;2022-09-29T02:04:26;6.87;;;5.60;;
13641;SDS011;6894;52.196;9.904;2022-09-29T02:06:58;7.37;;;5.37;;
13641;SDS011;6894;52.196;9.904;2022-09-29T02:09:28;6.50;;;5.63;;
13641;SDS011;6894;52.196;9.904;2022-09-29T02:12:00;9.20;;;6.87;;
13641;SDS011;6894;52.196;9.904;2022-09-29T02:14:29;10.23;;;6.70;;
13641;SDS011;6894;52.196;9.904;2022-09-29T02:17:01;7.03;;;6.33;;
13641;SDS011;6894;52.196;9.904;2022-09-29T02:19:32;8.27;;;7.07;;
13641;SDS011;6894;52.196;9.904;2022-09-29T02:22:01;7.97;;;6.33;;
13641;SDS011;6894;52.196;9.904;2022-09-29T02:24:28;8.23;;;6.87;;
13641;SDS011;6894;52.196;9.904;2022-09-29T02:26:56;7.90;;;6.53;;
13641;SDS011;6894;52.196;9.904;2022-09-29T02:29:23;8.30;;;6.53;;
13641;SDS011;6894;52.196;9.904;2022-09-29T02:31:51;8.17;;;7.30;;
13641;SDS011;6894;52.196;9.904;2022-09-29T02:34:20;9.67;;;8.20;;
13641;SDS011;6894;52.196;9.904;2022-09-29T02:36:50;8.67;;;6.87;;
13641;SDS011;6894;52.196;9.904;2022-09-29T02:39:25;11.30;;;9.13;;
13641;SDS011;6894;52.196;9.904;2022-09-29T02:42:02;11.87;;;8.87;;
13641;SDS011;6894;52.196;9.904;2022-09-29T02:44:41;12.23;;;9.10;;
13641;SDS011;6894;52.196;9.904;2022-09-29T02:47:20;14.17;;;9.00;;
13641;SDS011;6894;52.196;9.904;2022-09-29T02:50:11;11.40;;;8.53;;
13641;SDS011;6894;52.196;9.904;2022-09-29T02:52:53;8.93;;;7.73;;
13641;SDS011;6894;52.196;9.904;2022-09-29T02:55:27;10.80;;;8.67;;
13641;SDS011;6894;52.196;9.904;2022-09-29T02:58:02;10.77;;;8.70;;
13641;SDS011;6894;52.196;9.904;2022-09-29T03:00:32;9.77;;;8.57;;
13641;SDS011;6894;52.196;9.904;2022-09-29T03:02:59;12.43;;;9.70;;
13641;SDS011;6894;52.196;9.904;2022-09-29T03:05:27;10.97;;;8.40;;
13641;SDS011;6894;52.196;9.904;2022-09-29T03:07:55;11.40;;;9.40;;
13641;SDS011;6894;52.196;9.904;2022-09-29T03:10:21;12.23;;;9.73;;
13641;SDS011;6894;52.196;9.904;2022-09-29T03:12:48;9.80;;;8.70;;
13641;SDS011;6894;52.196;9.904;2022-09-29T03:15:15;10.97;;;9.67;;
13641;SDS011;6894;52.196;9.904;2022-09-29T03:17:43;15.80;;;9.93;;
13641;SDS011;6894;52.196;9.904;2022-09-29T03:20:09;12.77;;;10.10;;
13641;SDS011;6894;52.196;9.904;2022-09-29T03:22:38;13.43;;;9.97;;
13641;SDS011;6894;52.196;9.904;2022-09-29T03:25:05;12.00;;;9.60;;
13641;SDS011;6894;52.196;9.904;2022-09-29T03:27:32;12.97;;;10.40;;
13641;SDS011;6894;52.196;9.904;2022-09-29T03:30:00;17.70;;;11.10;;
13641;SDS011;6894;52.196;9.904;2022-09-29T03:32:27;16.37;;;11.53;;
13641;SDS011;6894;52.196;9.904;2022-09-29T03:34:54;15.53;;;10.80;;
13641;SDS011;6894;52.196;9.904;2022-09-29T03:37:21;16.13;;;11.33;;
13641;SDS011;6894;52.196;9.904;2022-09-29T03:39:49;15.60;;;10.40;;
13641;SDS011;6894;52.196;9.904;2022-09-29T03:42:15;16.77;;;11.23;;
13641;SDS011;6894;52.196;9.904;2022-09-29T03:44:42;14.53;;;10.53;;
13641;SDS011;6894;52.196;9.904;2022-09-29T03:47:09;13.97;;;11.70;;
13641;SDS011;6894;52.196;9.904;2022-09-29T03:49:35;12.77;;;10.20;;
13641;SDS011;6894;52.196;9.904;2022-09-29T03:52:02;16.17;;;10.77;;
13641;SDS011;6894;52.196;9.904;2022-09-29T03:54:29;10.50;;;9.40;;
13641;SDS011;6894;52.196;9.904;2022-09-29T03:56:57;14.90;;;11.37;;
13641;SDS011;6894;52.196;9.904;2022-09-29T03:59:24;13.00;;;11.10;;
13641;SDS011;6894;52.196;9.904;2022-09-29T04:01:50;15.57;;;10.83;;
13641;SDS011;6894;52.196;9.904;2022-09-29T04:04:17;13.70;;;11.57;;
13641;SDS011;6894;52.196;9.904;2022-09-29T04:06:44;14.70;;;11.03;;
13641;SDS011;6894;52.196;9.904;2022-09-29T04:09:10;14.40;;;11.90;;
13641;SDS011;6894;52.196;9.904;2022-09-29T04:11:37;13.83;;;11.93;;
13641;SDS011;6894;52.196;9.904;2022-09-29T04:14:05;12.93;;;10.50;;
13641;SDS011;6894;52.196;9.904;2022-09-29T04:16:32;15.70;;;11.00;;
13641;SDS011;6894;52.196;9.904;2022-09-29T04:18:59;13.93;;;11.53;;
13641;SDS011;6894;52.196;9.904;2022-09-29T04:21:25;16.43;;;11.53;;
13641;SDS011;6894;52.196;9.904;2022-09-29T04:23:52;14.10;;;11.50;;
13641;SDS011;6894;52.196;9.904;2022-09-29T04:26:19;17.33;;;12.77;;
13641;SDS011;6894;52.196;9.904;2022-09-29T04:28:46;17.17;;;12.73;;
13641;SDS011;6894;52.196;9.904;2022-09-29T04:31:14;17.17;;;12.70;;
13641;SDS011;6894;52.196;9.904;2022-09-29T04:33:40;19.80;;;12.67;;
13641;SDS011;6894;52.196;9.904;2022-09-29T04:36:07;18.70;;;11.53;;
13641;SDS011;6894;52.196;9.904;2022-09-29T04:38:34;18.20;;;12.90;;
13641;SDS011;6894;52.196;9.904;2022-09-29T04:41:01;22.13;;;13.73;;
13641;SDS011;6894;52.196;9.904;2022-09-29T04:43:28;19.63;;;13.70;;
13641;SDS011;6894;52.196;9.904;2022-09-29T04:46:00;18.00;;;12.93;;
13641;SDS011;6894;52.196;9.904;2022-09-29T04:48:29;21.37;;;13.30;;
13641;SDS011;6894;52.196;9.904;2022-09-29T04:50:56;17.47;;;12.90;;
13641;SDS011;6894;52.196;9.904;2022-09-29T04:53:24;19.97;;;13.30;;
13641;SDS011;6894;52.196;9.904;2022-09-29T04:55:51;19.57;;;13.17;;
13641;SDS011;6894;52.196;9.904;2022-09-29T04:58:18;17.50;;;12.43;;
13641;SDS011;6894;52.196;9.904;2022-09-29T05:00:45;19.07;;;13.67;;
13641;SDS011;6894;52.196;9.904;2022-09-29T05:03:12;14.80;;;12.90;;
13641;SDS011;6894;52.196;9.904;2022-09-29T05:05:40;19.67;;;13.00;;
13641;SDS011;6894;52.196;9.904;2022-09-29T05:08:06;17.07;;;13.50;;
13641;SDS011;6894;52.196;9.904;2022-09-29T05:10:33;17.50;;;13.13;;
13641;SDS011;6894;52.196;9.904;2022-09-29T05:13:00;15.67;;;13.73;;
13641;SDS011;6894;52.196;9.904;2022-09-29T05:15:26;20.47;;;13.10;;
13641;SDS011;6894;52.196;9.904;2022-09-29T05:17:53;16.30;;;13.20;;
13641;SDS011;6894;52.196;9.904;2022-09-29T05:20:20;20.10;;;14.17;;
13641;SDS011;6894;52.196;9.904;2022-09-29T05:22:48;19.53;;;13.33;;
13641;SDS011;6894;52.196;9.904;2022-09-29T05:25:15;17.33;;;13.20;;
13641;SDS011;6894;52.196;9.904;2022-09-29T05:27:41;21.10;;;13.60;;
13641;SDS011;6894;52.196;9.904;2022-09-29T05:30:08;20.97;;;14.77;;
13641;SDS011;6894;52.196;9.904;2022-09-29T05:32:35;19.27;;;13.67;;
13641;SDS011;6894;52.196;9.904;2022-09-29T05:35:02;17.10;;;12.33;;
13641;SDS011;6894;52.196;9.904;2022-09-29T05:37:29;18.83;;;14.33;;
13641;SDS011;6894;52.196;9.904;2022-09-29T05:39:57;22.33;;;13.40;;
13641;SDS011;6894;52.196;9.904;2022-09-29T05:42:24;14.30;;;12.30;;
13641;SDS011;6894;52.196;9.904;2022-09-29T05:44:51;20.17;;;13.77;;
13641;SDS011;6894;52.196;9.904;2022-09-29T05:47:18;16.70;;;12.77;;
13641;SDS011;6894;52.196;9.904;2022-09-29T05:49:45;18.50;;;13.10;;
13641;SDS011;6894;52.196;9.904;2022-09-29T05:52:11;21.57;;;14.10;;
13641;SDS011;6894;52.196;9.904;2022-09-29T05:54:38;20.27;;;14.13;;
13641;SDS011;6894;52.196;9.904;2022-09-29T05:57:06;20.03;;;13.33;;
13641;SDS011;6894;52.196;9.904;2022-09-29T05:59:33;19.40;;;13.87;;
13641;SDS011;6894;52.196;9.904;2022-09-29T06:02:00;22.20;;;15.00;;
13641;SDS011;6894;52.196;9.904;2022-09-29T06:04:26;19.40;;;13.70;;
13641;SDS011;6894;52.196;9.904;2022-09-29T06:06:53;18.07;;;13.73;;
13641;SDS011;6894;52.196;9.904;2022-09-29T06:09:20;18.60;;;12.87;;
13641;SDS011;6894;52.196;9.904;2022-09-29T06:11:47;30.23;;;13.60;;
13641;SDS011;6894;52.196;9.904;2022-09-29T06:14:15;18.97;;;14.03;;
13641;SDS011;6894;52.196;9.904;2022-09-29T06:16:42;16.67;;;13.10;;
13641;SDS011;6894;52.196;9.904;2022-09-29T06:19:09;16.90;;;12.37;;
13641;SDS011;6894;52.196;9.904;2022-09-29T06:21:35;19.63;;;13.50;;
13641;SDS011;6894;52.196;9.904;2022-09-29T06:24:03;17.80;;;12.83;;
13641;SDS011;6894;52.196;9.904;2022-09-29T06:26:31;20.00;;;12.37;;
13641;SDS011;6894;52.196;9.904;2022-09-29T06:28:58;19.67;;;13.33;;
13641;SDS011;6894;52.196;9.904;2022-09-29T06:31:26;19.87;;;12.93;;
13641;SDS011;6894;52.196;9.904;2022-09-29T06:33:55;18.47;;;12.97;;
13641;SDS011;6894;52.196;9.904;2022-09-29T06:36:23;19.07;;;14.17;;
13641;SDS011;6894;52.196;9.904;2022-09-29T06:39:12;15.00;;;12.37;;
13641;SDS011;6894;52.196;9.904;2022-09-29T06:41:39;17.27;;;13.40;;
13641;SDS011;6894;52.196;9.904;2022-09-29T06:44:08;21.37;;;14.17;;
13641;SDS011;6894;52.196;9.904;2022-09-29T06:46:37;20.80;;;14.07;;
13641;SDS011;6894;52.196;9.904;2022-09-29T06:49:03;21.30;;;13.03;;
13641;SDS011;6894;52.196;9.904;2022-09-29T06:51:30;17.70;;;13.10;;
13641;SDS011;6894;52.196;9.904;2022-09-29T06:53:57;16.03;;;12.37;;
13641;SDS011;6894;52.196;9.904;2022-09-29T06:56:24;18.47;;;14.13;;
13641;SDS011;6894;52.196;9.904;2022-09-29T06:58:50;18.47;;;14.10;;
13641;SDS011;6894;52.196;9.904;2022-09-29T07:01:17;14.23;;;12.70;;
13641;SDS011;6894;52.196;9.904;2022-09-29T07:03:45;17.17;;;12.80;;
13641;SDS011;6894;52.196;9.904;2022-09-29T07:06:12;15.80;;;13.53;;
13641;SDS011;6894;52.196;9.904;2022-09-29T07:08:39;17.50;;;13.83;;
13641;SDS011;6894;52.196;9.904;2022-09-29T07:11:05;16.53;;;13.77;;
13641;SDS011;6894;52.196;9.904;2022-09-29T07:13:33;18.80;;;13.73;;
13641;SDS011;6894;52.196;9.904;2022-09-29T07:16:04;16.03;;;13.60;;
13641;SDS011;6894;52.196;9.904;2022-09-29T07:18:32;17.77;;;14.13;;
13641;SDS011;6894;52.196;9.904;2022-09-29T07:21:03;15.73;;;13.00;;
13641;SDS011;6894;52.196;9.904;2022-09-29T07:23:30;17.30;;;13.07;;
13641;SDS011;6894;52.196;9.904;2022-09-29T07:25:57;13.80;;;12.27;;
13641;SDS011;6894;52.196;9.904;2022-09-29T07:28:24;17.60;;;13.80;;
13641;SDS011;6894;52.196;9.904;2022-09-29T07:30:59;15.37;;;13.13;;
13641;SDS011;6894;52.196;9.904;2022-09-29T07:33:26;18.43;;;14.03;;
13641;SDS011;6894;52.196;9.904;2022-09-29T07:35:53;15.97;;;13.93;;
13641;SDS011;6894;52.196;9.904;2022-09-29T07:38:21;15.80;;;12.97;;
13641;SDS011;6894;52.196;9.904;2022-09-29T07:40:48;16.20;;;14.13;;
13641;SDS011;6894;52.196;9.904;2022-09-29T07:43:17;13.93;;;12.53;;
13641;SDS011;6894;52.196;9.904;2022-09-29T07:45:45;16.47;;;13.03;;
13641;SDS011;6894;52.196;9.904;2022-09-29T07:48:13;13.77;;;12.10;;
13641;SDS011;6894;52.196;9.904;2022-09-29T07:50:41;14.40;;;12.90;;
13641;SDS011;6894;52.196;9.904;2022-09-29T07:53:08;13.77;;;12.37;;
13641;SDS011;6894;52.196;9.904;2022-09-29T07:55:36;14.93;;;13.27;;
13641;SDS011;6894;52.196;9.904;2022-09-29T07:58:03;15.63;;;13.83;;
13641;SDS011;6894;52.196;9.904;2022-09-29T08:00:31;13.47;;;12.07;;
13641;SDS011;6894;52.196;9.904;2022-09-29T08:02:59;17.73;;;12.93;;
13641;SDS011;6894;52.196;9.904;2022-09-29T08:05:27;11.70;;;10.60;;
13641;SDS011;6894;52.196;9.904;2022-09-29T08:07:54;14.07;;;11.77;;
13641;SDS011;6894;52.196;9.904;2022-09-29T08:10:22;12.27;;;11.07;;
13641;SDS011;6894;52.196;9.904;2022-09-29T08:12:50;11.03;;;9.83;;
13641;SDS011;6894;52.196;9.904;2022-09-29T08:15:16;12.13;;;10.43;;
13641;SDS011;6894;52.196;9.904;2022-09-29T08:17:43;10.27;;;9.27;;
13641;SDS011;6894;52.196;9.904;2022-09-29T08:20:10;10.93;;;9.83;;
13641;SDS011;6894;52.196;9.904;2022-09-29T08:22:36;10.50;;;9.40;;
13641;SDS011;6894;52.196;9.904;2022-09-29T08:25:03;9.73;;;8.80;;
13641;SDS011;6894;52.196;9.904;2022-09-29T08:27:30;11.50;;;9.83;;
13641;SDS011;6894;52.196;9.904;2022-09-29T08:29:59;10.57;;;9.23;;
13641;SDS011;6894;52.196;9.904;2022-09-29T08:32:26;11.17;;;9.07;;
13641;SDS011;6894;52.196;9.904;2022-09-29T08:34:53;10.33;;;9.20;;
13641;SDS011;6894;52.196;9.904;2022-09-29T08:37:20;12.00;;;10.47;;
13641;SDS011;6894;52.196;9.904;2022-09-29T08:39:47;10.27;;;9.27;;
13641;SDS011;6894;52.196;9.904;2022-09-29T08:42:15;10.63;;;9.53;;
13641;SDS011;6894;52.196;9.904;2022-09-29T08:44:50;10.63;;;9.50;;
13641;SDS011;6894;52.196;9.904;2022-09-29T08:47:25;9.70;;;8.70;;
13641;SDS011;6894;52.196;9.904;2022-09-29T08:49:55;9.63;;;8.73;;
13641;SDS011;6894;52.196;9.904;2022-09-29T08:52:26;9.53;;;8.53;;
13641;SDS011;6894;52.196;9.904;2022-09-29T08:54:55;12.17;;;10.23;;
13641;SDS011;6894;52.196;9.904;2022-09-29T08:57:30;11.33;;;10.33;;
13641;SDS011;6894;52.196;9.904;2022-09-29T08:59:58;11.00;;;9.90;;
13641;SDS011;6894;52.196;9.904;2022-09-29T09:02:34;10.13;;;9.13;;
13641;SDS011;6894;52.196;9.904;2022-09-29T09:05:18;11.33;;;10.13;;
13641;SDS011;6894;52.196;9.904;2022-09-29T09:07:55;11.90;;;10.80;;
13641;SDS011;6894;52.196;9.904;2022-09-29T09:10:30;11.10;;;9.87;;
13641;SDS011;6894;52.196;9.904;2022-09-29T09:13:09;11.30;;;10.20;;
13641;SDS011;6894;52.196;9.904;2022-09-29T09:18:49;12.93;;;10.87;;
13641;SDS011;6894;52.196;9.904;2022-09-29T09:21:31;12.00;;;10.70;;
13641;SDS011;6894;52.196;9.904;2022-09-29T09:24:07;11.23;;;10.13;;
13641;SDS011;6894;52.196;9.904;2022-09-29T09:26:41;12.00;;;10.47;;
13641;SDS011;6894;52.196;9.904;2022-09-29T09:29:10;13.10;;;11.70;;
13641;SDS011;6894;52.196;9.904;2022-09-29T09:31:43;12.63;;;11.40;;
13641;SDS011;6894;52.196;9.904;2022-09-29T09:34:17;11.67;;;10.47;;
13641;SDS011;6894;52.196;9.904;2022-09-29T09:36:49;13.47;;;12.07;;
13641;SDS011;6894;52.196;9.904;2022-09-29T09:39:20;13.73;;;11.50;;
13641;SDS011;6894;52.196;9.904;2022-09-29T09:41:52;13.00;;;11.73;;
13641;SDS011;6894;52.196;9.904;2022-09-29T09:44:23;13.23;;;11.93;;
13641;SDS011;6894;52.196;9.904;2022-09-29T09:46:52;13.97;;;12.57;;
13641;SDS011;6894;52.196;9.904;2022-09-29T09:49:24;12.47;;;11.27;;
13641;SDS011;6894;52.196;9.904;2022-09-29T09:51:56;12.50;;;11.30;;
13641;SDS011;6894;52.196;9.904;2022-09-29T09:54:31;11.80;;;10.70;;
13641;SDS011;6894;52.196;9.904;2022-09-29T09:57:15;12.07;;;10.80;;
13641;SDS011;6894;52.196;9.904;2022-09-29T09:59:57;11.73;;;10.53;;
13641;SDS011;6894;52.196;9.904;2022-09-29T10:02:30;13.83;;;11.03;;
13641;SDS011;6894;52.196;9.904;2022-09-29T10:04:58;11.13;;;10.03;;
13641;SDS011;6894;52.196;9.904;2022-09-29T10:07:26;11.80;;;10.70;;
13641;SDS011;6894;52.196;9.904;2022-09-29T10:09:54;11.43;;;10.30;;
13641;SDS011;6894;52.196;9.904;2022-09-29T10:12:23;11.77;;;10.53;;
13641;SDS011;6894;52.196;9.904;2022-09-29T10:14:51;10.23;;;9.33;;
13641;SDS011;6894;52.196;9.904;2022-09-29T10:17:20;11.80;;;9.77;;
13641;SDS011;6894;52.196;9.904;2022-09-29T10:19:54;11.43;;;10.23;;
13641;SDS011;6894;52.196;9.904;2022-09-29T10:22:24;10.13;;;9.27;;
13641;SDS011;6894;52.196;9.904;2022-09-29T10:24:52;9.33;;;8.43;;
13641;SDS011;6894;52.196;9.904;2022-09-29T10:27:21;9.60;;;8.63;;
13641;SDS011;6894;52.196;9.904;2022-09-29T10:29:50;10.17;;;9.17;;
13641;SDS011;6894;52.196;9.904;2022-09-29T10:32:20;9.27;;;8.37;;
13641;SDS011;6894;52.196;9.904;2022-09-29T10:34:51;8.00;;;6.93;;
13641;SDS011;6894;52.196;9.904;2022-09-29T10:37:29;6.93;;;6.23;;
13641;SDS011;6894;52.196;9.904;2022-09-29T10:40:01;8.10;;;7.30;;
13641;SDS011;6894;52.196;9.904;2022-09-29T10:42:31;7.90;;;7.10;;
13641;SDS011;6894;52.196;9.904;2022-09-29T10:45:00;7.77;;;6.70;;
13641;SDS011;6894;52.196;9.904;2022-09-29T10:47:35;8.17;;;7.37;;
13641;SDS011;6894;52.196;9.904;2022-09-29T10:50:06;7.47;;;6.53;;
13641;SDS011;6894;52.196;9.904;2022-09-29T10:52:39;7.17;;;6.07;;
13641;SDS011;6894;52.196;9.904;2022-09-29T10:55:13;6.70;;;6.10;;
13641;SDS011;6894;52.196;9.904;2022-09-29T10:57:43;6.07;;;5.47;;
13641;SDS011;6894;52.196;9.904;2022-09-29T11:00:29;6.67;;;5.93;;
13641;SDS011;6894;52.196;9.904;2022-09-29T11:03:04;6.70;;;6.10;;
13641;SDS011;6894;52.196;9.904;2022-09-29T11:05:45;5.13;;;4.63;;
13641;SDS011;6894;52.196;9.904;2022-09-29T11:08:19;5.20;;;4.70;;
13641;SDS011;6894;52.196;9.904;2022-09-29T11:10:52;5.80;;;5.20;;
13641;SDS011;6894;52.196;9.904;2022-09-29T11:13:36;5.30;;;4.77;;
13641;SDS011;6894;52.196;9.904;2022-09-29T11:16:08;6.20;;;4.50;;
13641;SDS011;6894;52.196;9.904;2022-09-29T11:18:40;4.53;;;4.13;;
13641;SDS011;6894;52.196;9.904;2022-09-29T11:21:15;4.77;;;4.37;;
13641;SDS011;6894;52.196;9.904;2022-09-29T11:24:17;5.93;;;5.43;;
13641;SDS011;6894;52.196;9.904;2022-09-29T11:26:55;6.03;;;5.53;;
13641;SDS011;6894;52.196;9.904;2022-09-29T11:29:30;5.30;;;4.80;;
13641;SDS011;6894;52.196;9.904;2022-09-29T11:32:06;4.57;;;4.07;;
13641;SDS011;6894;52.196;9.904;2022-09-29T11:34:54;3.87;;;3.57;;
13641;SDS011;6894;52.196;9.904;2022-09-29T11:37:44;4.07;;;3.70;;
13641;SDS011;6894;52.196;9.904;2022-09-29T11:40:25;3.60;;;3.13;;
13641;SDS011;6894;52.196;9.904;2022-09-29T11:43:04;4.97;;;4.53;;
13641;SDS011;6894;52.196;9.904;2022-09-29T11:45:46;4.40;;;4.00;;
13641;SDS011;6894;52.196;9.904;2022-09-29T11:48:34;3.53;;;3.23;;
13641;SDS011;6894;52.196;9.904;2022-09-29T11:51:23;3.87;;;3.53;;
13641;SDS011;6894;52.196;9.904;2022-09-29T11:54:09;5.67;;;4.80;;
13641;SDS011;6894;52.196;9.904;2022-09-29T11:56:47;4.63;;;3.50;;
13641;SDS011;6894;52.196;9.904;2022-09-29T11:59:26;3.23;;;2.50;;
13641;SDS011;6894;52.196;9.904;2022-09-29T12:02:15;2.50;;;2.30;;
13641;SDS011;6894;52.196;9.904;2022-09-29T12:04:57;2.10;;;1.67;;
13641;SDS011;6894;52.196;9.904;2022-09-29T12:07:35;2.97;;;1.80;;
13641;SDS011;6894;52.196;9.904;2022-09-29T12:10:16;1.20;;;1.10;;
13641;SDS011;6894;52.196;9.904;2022-09-29T12:12:55;2.43;;;2.20;;
13641;SDS011;6894;52.196;9.904;2022-09-29T12:15:34;5.33;;;2.80;;
13641;SDS011;6894;52.196;9.904;2022-09-29T12:18:10;3.47;;;2.73;;
13641;SDS011;6894;52.196;9.904;2022-09-29T12:20:42;3.10;;;2.80;;
13641;SDS011;6894;52.196;9.904;2022-09-29T12:23:12;3.03;;;2.50;;
13641;SDS011;6894;52.196;9.904;2022-09-29T12:25:42;1.70;;;1.60;;
13641;SDS011;6894;52.196;9.904;2022-09-29T12:28:18;2.77;;;2.50;;
13641;SDS011;6894;52.196;9.904;2022-09-29T12:30:49;2.37;;;2.10;;
13641;SDS011;6894;52.196;9.904;2022-09-29T12:33:21;2.40;;;1.60;;
13641;SDS011;6894;52.196;9.904;2022-09-29T12:35:54;1.93;;;1.23;;
13641;SDS011;6894;52.196;9.904;2022-09-29T12:38:29;1.50;;;1.20;;
13641;SDS011;6894;52.196;9.904;2022-09-29T12:41:04;0.90;;;0.77;;
13641;SDS011;6894;52.196;9.904;2022-09-29T12:43:41;1.73;;;1.57;;
13641;SDS011;6894;52.196;9.904;2022-09-29T12:46:14;1.67;;;1.00;;
13641;SDS011;6894;52.196;9.904;2022-09-29T12:48:50;1.90;;;1.80;;
13641;SDS011;6894;52.196;9.904;2022-09-29T12:51:22;2.03;;;1.27;;
13641;SDS011;6894;52.196;9.904;2022-09-29T12:53:58;2.40;;;1.60;;
13641;SDS011;6894;52.196;9.904;2022-09-29T12:56:34;1.57;;;1.47;;
13641;SDS011;6894;52.196;9.904;2022-09-29T12:59:05;1.70;;;1.50;;
13641;SDS011;6894;52.196;9.904;2022-09-29T13:01:37;1.57;;;1.47;;
13641;SDS011;6894;52.196;9.904;2022-09-29T13:04:12;1.43;;;1.30;;
13641;SDS011;6894;52.196;9.904;2022-09-29T13:07:08;2.27;;;1.87;;
13641;SDS011;6894;52.196;9.904;2022-09-29T13:12:52;1.80;;;1.40;;
13641;SDS011;6894;52.196;9.904;2022-09-29T13:15:37;1.47;;;1.37;;
13641;SDS011;6894;52.196;9.904;2022-09-29T13:18:30;4.20;;;2.30;;
13641;SDS011;6894;52.196;9.904;2022-09-29T13:21:09;1.60;;;1.50;;
13641;SDS011;6894;52.196;9.904;2022-09-29T13:23:50;1.30;;;1.20;;
13641;SDS011;6894;52.196;9.904;2022-09-29T13:26:34;2.13;;;1.60;;
13641;SDS011;6894;52.196;9.904;2022-09-29T13:29:11;1.70;;;1.60;;
13641;SDS011;6894;52.196;9.904;2022-09-29T13:31:44;1.80;;;1.70;;
13641;SDS011;6894;52.196;9.904;2022-09-29T13:34:17;2.70;;;1.90;;
13641;SDS011;6894;52.196;9.904;2022-09-29T13:36:49;1.50;;;1.23;;
13641;SDS011;6894;52.196;9.904;2022-09-29T13:39:19;2.83;;;1.90;;
13641;SDS011;6894;52.196;9.904;2022-09-29T13:41:48;1.60;;;1.50;;
13641;SDS011;6894;52.196;9.904;2022-09-29T13:44:20;2.23;;;1.40;;
13641;SDS011;6894;52.196;9.904;2022-09-29T13:46:51;1.67;;;1.57;;
13641;SDS011;6894;52.196;9.904;2022-09-29T13:49:23;1.40;;;1.30;;
13641;SDS011;6894;52.196;9.904;2022-09-29T13:51:52;2.20;;;2.00;;
13641;SDS011;6894;52.196;9.904;2022-09-29T13:54:20;2.00;;;1.80;;
13641;SDS011;6894;52.196;9.904;2022-09-29T13:59:47;2.47;;;2.00;;
13641;SDS011;6894;52.196;9.904;2022-09-29T14:02:42;2.30;;;2.10;;
13641;SDS011;6894;52.196;9.904;2022-09-29T14:08:18;2.77;;;1.90;;
13641;SDS011;6894;52.196;9.904;2022-09-29T14:10:50;3.40;;;1.73;;
13641;SDS011;6894;52.196;9.904;2022-09-29T14:13:24;2.20;;;1.83;;
13641;SDS011;6894;52.196;9.904;2022-09-29T14:16:00;3.43;;;2.50;;
13641;SDS011;6894;52.196;9.904;2022-09-29T14:18:40;2.40;;;2.17;;
13641;SDS011;6894;52.196;9.904;2022-09-29T14:21:11;1.73;;;1.63;;
13641;SDS011;6894;52.196;9.904;2022-09-29T14:23:46;1.80;;;1.60;;
13641;SDS011;6894;52.196;9.904;2022-09-29T14:29:10;1.57;;;1.40;;
13641;SDS011;6894;52.196;9.904;2022-09-29T14:31:47;1.50;;;1.40;;
13641;SDS011;6894;52.196;9.904;2022-09-29T14:34:19;1.70;;;1.53;;
13641;SDS011;6894;52.196;9.904;2022-09-29T14:36:48;2.30;;;1.20;;
13641;SDS011;6894;52.196;9.904;2022-09-29T14:39:19;1.97;;;1.43;;
13641;SDS011;6894;52.196;9.904;2022-09-29T14:41:48;2.10;;;1.90;;
13641;SDS011;6894;52.196;9.904;2022-09-29T14:44:17;2.13;;;1.63;;
13641;SDS011;6894;52.196;9.904;2022-09-29T14:50:13;2.27;;;1.57;;
13641;SDS011;6894;52.196;9.904;2022-09-29T14:53:12;1.77;;;1.43;;
13641;SDS011;6894;52.196;9.904;2022-09-29T14:55:50;2.83;;;1.50;;
13641;SDS011;6894;52.196;9.904;2022-09-29T14:58:35;1.83;;;1.70;;
13641;SDS011;6894;52.196;9.904;2022-09-29T15:01:23;1.40;;;1.30;;
13641;SDS011;6894;52.196;9.904;2022-09-29T15:03:53;1.53;;;1.43;;
13641;SDS011;6894;52.196;9.904;2022-09-29T15:06:23;2.03;;;1.40;;
13641;SDS011;6894;52.196;9.904;2022-09-29T15:08:53;2.47;;;1.87;;
13641;SDS011;6894;52.196;9.904;2022-09-29T15:11:22;1.97;;;1.30;;
13641;SDS011;6894;52.196;9.904;2022-09-29T15:13:50;3.17;;;1.63;;
13641;SDS011;6894;52.196;9.904;2022-09-29T15:16:20;2.37;;;1.60;;
13641;SDS011;6894;52.196;9.904;2022-09-29T15:18:57;2.03;;;1.30;;
13641;SDS011;6894;52.196;9.904;2022-09-29T15:21:39;2.00;;;1.40;;
13641;SDS011;6894;52.196;9.904;2022-09-29T15:24:18;1.80;;;1.70;;
13641;SDS011;6894;52.196;9.904;2022-09-29T15:26:55;2.57;;;1.87;;
13641;SDS011;6894;52.196;9.904;2022-09-29T15:29:26;2.00;;;1.73;;
13641;SDS011;6894;52.196;9.904;2022-09-29T15:31:53;2.43;;;1.40;;
13641;SDS011;6894;52.196;9.904;2022-09-29T15:34:21;2.40;;;1.83;;
13641;SDS011;6894;52.196;9.904;2022-09-29T15:36:52;1.67;;;1.50;;